createdAt,value
2023-05-05T00:00:25.736Z,11.51
2023-05-05T00:02:55.864Z,11.54
2023-05-05T00:05:25.406Z,11.56
2023-05-05T00:07:54.117Z,11.58
2023-05-05T00:10:22.568Z,11.55
2023-05-05T00:12:50.998Z,11.51
2023-05-05T00:15:19.569Z,11.51
2023-05-05T00:17:47.998Z,11.48
2023-05-05T00:20:17.784Z,11.45
2023-05-05T00:22:46.110Z,11.49
2023-05-05T00:25:14.476Z,11.48
2023-05-05T00:27:42.787Z,11.48
2023-05-05T00:30:13.677Z,11.50
2023-05-05T00:32:42.036Z,11.51
2023-05-05T00:35:10.724Z,11.52
2023-05-05T00:37:40.407Z,11.53
2023-05-05T00:40:09.984Z,11.45
2023-05-05T00:42:41.846Z,11.37
2023-05-05T00:45:11.361Z,11.29
2023-05-05T00:47:41.206Z,11.27
2023-05-05T00:50:10.783Z,11.28
2023-05-05T00:52:40.623Z,11.32
2023-05-05T00:55:10.121Z,11.35
2023-05-05T00:57:38.648Z,11.35
2023-05-05T01:00:09.900Z,11.27
2023-05-05T01:02:40.264Z,11.25
2023-05-05T01:05:10.100Z,11.18
2023-05-05T01:07:53.912Z,11.11
2023-05-05T01:10:31.260Z,11.04
2023-05-05T01:13:07.705Z,11.05
2023-05-05T01:15:41.865Z,11.06
2023-05-05T01:18:21.223Z,11.02
2023-05-05T01:20:57.274Z,11.04
2023-05-05T01:23:44.499Z,11.09
2023-05-05T01:26:39.136Z,11.10
2023-05-05T01:29:39.982Z,11.10
2023-05-05T01:32:12.514Z,11.09
2023-05-05T01:34:46.091Z,11.10
2023-05-05T01:37:19.546Z,11.11
2023-05-05T01:39:52.470Z,11.09
2023-05-05T01:42:23.344Z,11.10
2023-05-05T01:44:54.074Z,11.08
2023-05-05T01:47:24.593Z,11.06
2023-05-05T01:49:53.651Z,10.95
2023-05-05T01:52:23.733Z,10.82
2023-05-05T01:54:53.996Z,10.70
2023-05-05T01:57:25.928Z,10.65
2023-05-05T01:59:55.547Z,10.61
2023-05-05T02:02:29.861Z,10.57
2023-05-05T02:04:59.713Z,10.53
2023-05-05T02:07:29.105Z,10.59
2023-05-05T02:09:58.408Z,10.55
2023-05-05T02:12:27.775Z,10.53
2023-05-05T02:15:00.793Z,10.51
2023-05-05T02:17:31.076Z,10.53
2023-05-05T02:20:01.707Z,10.53
2023-05-05T02:22:31.645Z,10.43
2023-05-05T02:25:00.072Z,10.43
2023-05-05T02:27:29.326Z,10.37
2023-05-05T02:30:01.488Z,10.34
2023-05-05T02:32:34.723Z,10.31
2023-05-05T02:35:11.905Z,10.29
2023-05-05T02:37:43.905Z,10.27
2023-05-05T02:40:14.848Z,10.21
2023-05-05T02:42:46.273Z,10.22
2023-05-05T02:45:18.353Z,10.27
2023-05-05T02:47:48.146Z,10.33
2023-05-05T02:50:17.069Z,10.36
2023-05-05T02:52:45.812Z,10.36
2023-05-05T02:55:14.571Z,10.34
2023-05-05T02:57:51.468Z,10.37
2023-05-05T03:00:26.953Z,10.40
2023-05-05T03:03:06.776Z,10.42
2023-05-05T03:05:40.007Z,10.37
2023-05-05T03:08:14.468Z,10.31
2023-05-05T03:10:48.132Z,10.24
2023-05-05T03:13:19.609Z,10.27
2023-05-05T03:15:50.736Z,10.25
2023-05-05T03:18:23.612Z,10.23
2023-05-05T03:20:52.575Z,10.27
2023-05-05T03:23:22.737Z,10.27
2023-05-05T03:25:51.877Z,10.22
2023-05-05T03:28:20.224Z,10.15
2023-05-05T03:30:48.618Z,10.11
2023-05-05T03:33:17.345Z,10.15
2023-05-05T03:35:47.037Z,10.12
2023-05-05T03:38:15.365Z,10.05
2023-05-05T03:40:44.808Z,10.03
2023-05-05T03:43:13.416Z,10.04
2023-05-05T03:45:42.155Z,10.05
2023-05-05T03:48:10.487Z,10.10
2023-05-05T03:50:38.814Z,10.11
2023-05-05T03:53:08.561Z,10.12
2023-05-05T03:55:36.901Z,10.12
2023-05-05T03:58:05.206Z,10.12
2023-05-05T04:00:33.474Z,10.12
2023-05-05T04:03:02.055Z,10.10
2023-05-05T04:05:30.424Z,10.09
2023-05-05T04:07:58.735Z,10.09
2023-05-05T04:10:28.433Z,10.09
2023-05-05T04:12:56.884Z,10.11
2023-05-05T04:15:25.452Z,10.13
2023-05-05T04:17:53.841Z,10.12
2023-05-05T04:20:22.435Z,10.14
2023-05-05T04:22:52.585Z,10.12
2023-05-05T04:25:21.186Z,10.04
2023-05-05T04:27:51.091Z,10.02
2023-05-05T04:30:19.539Z,10.04
2023-05-05T04:32:49.974Z,10.03
2023-05-05T04:35:18.377Z,9.98
2023-05-05T04:37:46.669Z,9.90
2023-05-05T04:40:15.012Z,9.90
2023-05-05T04:42:43.372Z,9.95
2023-05-05T04:45:14.125Z,10.04
2023-05-05T04:47:42.974Z,10.05
2023-05-05T04:50:12.307Z,10.08
2023-05-05T04:52:40.688Z,10.07
2023-05-05T04:55:10.570Z,10.11
2023-05-05T04:57:39.156Z,10.11
2023-05-05T05:00:09.564Z,10.20
2023-05-05T05:02:39.634Z,10.22
2023-05-05T05:05:09.502Z,10.21
2023-05-05T05:07:37.839Z,10.20
2023-05-05T05:10:07.385Z,10.27
2023-05-05T05:12:36.050Z,10.26
2023-05-05T05:15:04.807Z,10.30
2023-05-05T05:17:33.128Z,10.27
2023-05-05T05:20:04.918Z,10.31
2023-05-05T05:22:35.021Z,10.30
2023-05-05T05:25:05.848Z,10.32
2023-05-05T05:27:34.178Z,10.37
2023-05-05T05:30:03.128Z,10.47
2023-05-05T05:32:31.566Z,10.49
2023-05-05T05:35:00.092Z,10.54
2023-05-05T05:37:31.525Z,10.58
2023-05-05T05:39:59.898Z,10.57
2023-05-05T05:42:28.384Z,10.63
2023-05-05T05:44:58.422Z,10.65
2023-05-05T05:47:26.899Z,10.65
2023-05-05T05:49:55.571Z,10.70
2023-05-05T05:52:24.005Z,10.76
2023-05-05T05:54:53.700Z,10.81
2023-05-05T05:57:24.511Z,10.85
2023-05-05T05:59:53.856Z,10.88
2023-05-05T06:02:22.182Z,10.98
2023-05-05T06:04:50.889Z,11.09
2023-05-05T06:07:19.431Z,11.14
2023-05-05T06:09:48.125Z,11.19
2023-05-05T06:12:17.794Z,11.32
2023-05-05T06:14:46.241Z,11.39
2023-05-05T06:17:14.584Z,11.46
2023-05-05T06:19:43.370Z,11.48
2023-05-05T06:22:11.701Z,11.49
2023-05-05T06:24:40.026Z,11.53
2023-05-05T06:27:08.628Z,11.64
2023-05-05T06:29:38.324Z,11.63
2023-05-05T06:32:08.408Z,11.67
2023-05-05T06:34:36.768Z,11.70
2023-05-05T06:37:05.058Z,11.71
2023-05-05T06:39:33.424Z,11.76
2023-05-05T06:42:02.168Z,11.84
2023-05-05T06:44:31.068Z,11.90
2023-05-05T06:47:00.908Z,11.98
2023-05-05T06:49:29.410Z,12.06
2023-05-05T06:51:57.825Z,12.16
2023-05-05T06:54:26.115Z,12.20
2023-05-05T06:56:54.511Z,12.22
2023-05-05T06:59:22.812Z,12.28
2023-05-05T07:01:51.766Z,12.33
2023-05-05T07:04:22.344Z,12.34
2023-05-05T07:06:50.692Z,12.47
2023-05-05T07:09:20.287Z,12.51
2023-05-05T07:11:48.712Z,12.53
2023-05-05T07:14:17.114Z,12.52
2023-05-05T07:16:46.392Z,12.51
2023-05-05T07:19:14.722Z,12.51
2023-05-05T07:21:44.421Z,12.48
2023-05-05T07:24:12.749Z,12.51
2023-05-05T07:26:41.304Z,12.57
2023-05-05T07:29:09.686Z,12.60
2023-05-05T07:31:38.118Z,12.63
2023-05-05T07:34:06.461Z,12.69
2023-05-05T07:36:34.800Z,12.75
2023-05-05T07:39:05.135Z,12.80
2023-05-05T07:41:34.042Z,12.84
2023-05-05T07:44:02.404Z,12.95
2023-05-05T07:46:30.768Z,13.02
2023-05-05T07:48:59.132Z,13.09
2023-05-05T07:51:27.735Z,13.18
2023-05-05T07:53:56.681Z,13.25
2023-05-05T07:56:26.523Z,13.32
2023-05-05T07:58:54.855Z,13.35
2023-05-05T08:01:23.309Z,13.38
2023-05-05T08:03:51.896Z,13.47
2023-05-05T08:06:22.075Z,13.54
2023-05-05T08:08:50.807Z,13.58
2023-05-05T08:11:19.114Z,13.65
2023-05-05T08:13:49.448Z,13.70
2023-05-05T08:16:18.002Z,13.80
2023-05-05T08:18:46.363Z,13.89
2023-05-05T08:21:14.704Z,14.02
2023-05-05T08:23:43.053Z,14.09
2023-05-05T08:26:11.417Z,14.21
2023-05-05T08:28:39.958Z,14.24
2023-05-05T08:31:10.113Z,14.31
2023-05-05T08:33:38.441Z,14.35
2023-05-05T08:36:08.974Z,14.46
2023-05-05T08:38:37.391Z,14.52
2023-05-05T08:41:07.467Z,14.58
2023-05-05T08:43:36.613Z,14.64
2023-05-05T08:46:06.129Z,14.73
2023-05-05T08:48:41.390Z,14.86
2023-05-05T08:51:11.137Z,14.95
2023-05-05T08:53:48.185Z,15.00
2023-05-05T08:56:16.718Z,15.05
2023-05-05T08:58:48.276Z,15.12
2023-05-05T09:01:17.882Z,15.18
2023-05-05T09:03:48.119Z,15.24
2023-05-05T09:06:16.812Z,15.35
2023-05-05T09:08:45.532Z,15.43
2023-05-05T09:11:14.089Z,15.51
2023-05-05T09:13:43.555Z,15.59
2023-05-05T09:16:11.947Z,15.69
2023-05-05T09:18:42.573Z,15.78
2023-05-05T09:21:22.621Z,15.90
2023-05-05T09:24:10.839Z,15.94
2023-05-05T09:26:43.687Z,16.02
2023-05-05T09:29:19.438Z,16.06
2023-05-05T09:32:05.419Z,16.13
2023-05-05T09:34:35.468Z,16.17
2023-05-05T09:37:06.215Z,16.22
2023-05-05T09:39:34.737Z,16.31
2023-05-05T09:42:03.681Z,16.42
2023-05-05T09:44:36.407Z,16.56
2023-05-05T09:47:09.361Z,16.70
2023-05-05T09:49:43.425Z,16.80
2023-05-05T09:52:17.701Z,16.92
2023-05-05T09:54:46.410Z,17.06
2023-05-05T09:57:27.418Z,17.09
2023-05-05T09:59:57.490Z,17.21
2023-05-05T10:02:34.509Z,17.34
2023-05-05T10:05:07.592Z,17.42
2023-05-05T10:07:40.300Z,17.48
2023-05-05T10:10:10.948Z,17.45
2023-05-05T10:12:40.176Z,17.49
2023-05-05T10:15:10.001Z,17.76
2023-05-05T10:17:57.907Z,17.84
2023-05-05T10:20:33.046Z,17.97
2023-05-05T10:23:06.598Z,18.06
2023-05-05T10:25:40.210Z,18.07
2023-05-05T10:28:12.920Z,18.36
2023-05-05T10:30:47.039Z,18.75
2023-05-05T10:33:30.842Z,19.01
2023-05-05T10:36:03.069Z,19.19
2023-05-05T10:38:33.155Z,19.44
2023-05-05T10:41:02.552Z,19.90
2023-05-05T10:43:32.146Z,20.34
2023-05-05T10:46:01.465Z,20.61
2023-05-05T10:48:36.837Z,20.71
2023-05-05T10:51:27.461Z,20.99
2023-05-05T10:54:13.110Z,21.11
2023-05-05T10:56:43.235Z,21.41
2023-05-05T10:59:45.392Z,21.60
2023-05-05T11:02:28.020Z,21.61
2023-05-05T11:05:17.491Z,21.46
2023-05-05T11:07:46.711Z,21.62
2023-05-05T11:10:17.433Z,21.79
2023-05-05T11:13:20.668Z,21.71
2023-05-05T11:15:50.664Z,21.54
2023-05-05T11:18:39.319Z,21.39
2023-05-05T11:21:18.329Z,21.61
2023-05-05T11:23:51.298Z,21.91
2023-05-05T11:26:51.557Z,21.74
2023-05-05T11:29:20.018Z,21.35
2023-05-05T11:32:12.113Z,21.29
2023-05-05T11:34:49.898Z,21.14
2023-05-05T11:37:18.400Z,21.02
2023-05-05T11:40:02.404Z,20.89
2023-05-05T11:42:32.582Z,20.63
2023-05-05T11:45:01.193Z,20.44
2023-05-05T11:47:32.012Z,20.33
2023-05-05T11:50:16.390Z,20.39
2023-05-05T11:52:44.673Z,20.65
2023-05-05T11:55:13.166Z,20.75
2023-05-05T11:57:43.190Z,21.00
2023-05-05T12:00:12.740Z,21.03
2023-05-05T12:02:41.520Z,21.30
2023-05-05T12:05:10.481Z,21.48
2023-05-05T12:07:39.005Z,21.84
2023-05-05T12:10:08.594Z,21.49
2023-05-05T12:12:38.612Z,21.73
2023-05-05T12:15:10.412Z,22.33
2023-05-05T12:17:45.950Z,22.20
2023-05-05T12:20:14.950Z,22.02
2023-05-05T12:22:44.727Z,22.56
2023-05-05T12:25:13.213Z,22.50
2023-05-05T12:27:42.605Z,22.61
2023-05-05T12:30:18.416Z,22.66
2023-05-05T12:32:47.248Z,22.89
2023-05-05T12:35:16.963Z,22.61
2023-05-05T12:37:45.651Z,22.69
2023-05-05T12:40:45.885Z,22.47
2023-05-05T12:43:28.791Z,22.94
2023-05-05T12:46:09.198Z,23.51
2023-05-05T12:48:39.132Z,23.60
2023-05-05T12:51:28.380Z,24.07
2023-05-05T12:54:04.934Z,23.81
2023-05-05T12:56:35.252Z,23.67
2023-05-05T12:59:04.979Z,24.02
2023-05-05T13:01:35.669Z,23.69
2023-05-05T13:04:14.387Z,23.99
2023-05-05T13:06:45.038Z,24.09
2023-05-05T13:09:24.263Z,24.49
2023-05-05T13:11:52.803Z,23.79
2023-05-05T13:14:21.835Z,23.66
2023-05-05T13:16:51.600Z,24.05
2023-05-05T13:19:19.905Z,23.87
2023-05-05T13:21:48.347Z,23.67
2023-05-05T13:24:23.670Z,23.77
2023-05-05T13:26:57.153Z,24.06
2023-05-05T13:29:29.040Z,24.07
2023-05-05T13:32:01.339Z,24.26
2023-05-05T13:34:29.890Z,24.58
2023-05-05T13:36:58.272Z,24.96
2023-05-05T13:39:26.587Z,25.10
2023-05-05T13:41:54.931Z,25.13
2023-05-05T13:44:23.298Z,24.91
2023-05-05T13:46:51.782Z,24.57
2023-05-05T13:49:21.694Z,24.78
2023-05-05T13:51:50.119Z,25.19
2023-05-05T13:54:18.843Z,25.17
2023-05-05T13:56:47.580Z,24.96
2023-05-05T13:59:15.868Z,25.13
2023-05-05T14:01:44.216Z,24.56
2023-05-05T14:04:12.793Z,24.15
2023-05-05T14:06:42.531Z,23.59
2023-05-05T14:09:11.010Z,23.60
2023-05-05T14:11:39.299Z,23.51
2023-05-05T14:14:07.733Z,23.61
2023-05-05T14:16:36.093Z,23.29
2023-05-05T14:19:04.576Z,23.54
2023-05-05T14:21:33.554Z,23.58
2023-05-05T14:24:03.319Z,23.78
2023-05-05T14:26:31.696Z,24.08
2023-05-05T14:29:00.123Z,24.06
2023-05-05T14:31:28.687Z,24.27
2023-05-05T14:33:57.015Z,24.40
2023-05-05T14:36:25.339Z,24.32
2023-05-05T14:38:53.937Z,24.49
2023-05-05T14:41:23.720Z,24.11
2023-05-05T14:43:52.061Z,23.54
2023-05-05T14:46:20.502Z,23.76
2023-05-05T14:48:48.944Z,23.84
2023-05-05T14:51:17.414Z,23.83
2023-05-05T14:53:45.783Z,23.37
2023-05-05T14:56:14.116Z,23.09
2023-05-05T14:58:43.991Z,22.68
2023-05-05T15:01:12.384Z,22.39
2023-05-05T15:03:41.192Z,22.38
2023-05-05T15:06:10.531Z,21.95
2023-05-05T15:08:39.019Z,22.10
2023-05-05T15:11:07.509Z,22.19
2023-05-05T15:13:38.546Z,21.99
2023-05-05T15:16:09.204Z,22.12
2023-05-05T15:18:37.613Z,21.77
2023-05-05T15:21:06.213Z,21.88
2023-05-05T15:23:34.735Z,21.90
2023-05-05T15:26:03.861Z,22.05
2023-05-05T15:28:32.298Z,22.20
2023-05-05T15:31:02.912Z,22.22
2023-05-05T15:33:33.525Z,22.00
2023-05-05T15:36:02.151Z,21.96
2023-05-05T15:38:31.253Z,22.13
2023-05-05T15:40:59.791Z,21.63
2023-05-05T15:43:28.403Z,21.46
2023-05-05T15:45:56.743Z,21.40
2023-05-05T15:48:25.036Z,21.46
2023-05-05T15:50:54.803Z,21.24
2023-05-05T15:53:23.214Z,21.22
2023-05-05T15:55:51.582Z,21.20
2023-05-05T15:58:19.922Z,21.08
2023-05-05T16:00:48.384Z,20.86
2023-05-05T16:03:17.868Z,20.69
2023-05-05T16:05:47.136Z,20.64
2023-05-05T16:08:16.857Z,20.51
2023-05-05T16:10:45.164Z,20.27
2023-05-05T16:13:14.028Z,20.10
2023-05-05T16:15:42.470Z,20.12
2023-05-05T16:18:10.792Z,20.07
2023-05-05T16:20:39.160Z,20.02
2023-05-05T16:23:08.000Z,19.84
2023-05-05T16:25:37.771Z,19.80
2023-05-05T16:28:06.581Z,19.65
2023-05-05T16:30:35.348Z,19.48
2023-05-05T16:33:03.926Z,19.49
2023-05-05T16:35:32.330Z,19.44
2023-05-05T16:38:00.730Z,19.37
2023-05-05T16:40:29.345Z,19.42
2023-05-05T16:42:59.068Z,19.35
2023-05-05T16:45:27.363Z,19.32
2023-05-05T16:47:56.301Z,19.25
2023-05-05T16:50:24.896Z,19.14
2023-05-05T16:52:54.436Z,19.07
2023-05-05T16:55:22.891Z,19.06
2023-05-05T16:57:51.621Z,18.89
2023-05-05T17:00:21.836Z,18.87
2023-05-05T17:02:50.401Z,18.72
2023-05-05T17:05:18.965Z,18.69
2023-05-05T17:07:48.237Z,18.60
2023-05-05T17:10:16.727Z,18.53
2023-05-05T17:12:45.431Z,18.46
2023-05-05T17:15:13.932Z,18.38
2023-05-05T17:17:43.692Z,18.36
2023-05-05T17:20:13.142Z,18.32
2023-05-05T17:22:41.577Z,18.34
2023-05-05T17:25:11.249Z,18.30
2023-05-05T17:27:39.754Z,18.23
2023-05-05T17:30:09.276Z,18.26
2023-05-05T17:32:38.159Z,18.27
2023-05-05T17:35:08.687Z,18.22
2023-05-05T17:37:37.709Z,18.13
2023-05-05T17:40:07.553Z,18.08
2023-05-05T17:42:35.953Z,17.96
2023-05-05T17:45:04.752Z,17.95
2023-05-05T17:47:33.174Z,17.92
2023-05-05T17:50:01.878Z,17.77
2023-05-05T17:52:31.700Z,17.70
2023-05-05T17:55:00.029Z,17.68
2023-05-05T17:57:28.718Z,17.78
2023-05-05T17:59:57.394Z,17.70
2023-05-05T18:02:25.996Z,17.66
2023-05-05T18:04:54.472Z,17.55
2023-05-05T18:07:22.817Z,17.50
2023-05-05T18:09:52.656Z,17.45
2023-05-05T18:12:21.425Z,17.49
2023-05-05T18:14:49.784Z,17.35
2023-05-05T18:17:18.168Z,17.27
2023-05-05T18:19:49.082Z,17.21
2023-05-05T18:22:18.491Z,17.06
2023-05-05T18:24:47.700Z,17.01
2023-05-05T18:27:17.531Z,16.99
2023-05-05T18:29:45.838Z,16.86
2023-05-05T18:32:14.296Z,16.87
2023-05-05T18:34:42.636Z,16.84
2023-05-05T18:37:11.138Z,16.76
2023-05-05T18:39:39.698Z,16.58
2023-05-05T18:42:08.834Z,16.51
2023-05-05T18:44:38.718Z,16.51
2023-05-05T18:47:07.521Z,16.38
2023-05-05T18:49:35.903Z,16.44
2023-05-05T18:52:04.356Z,16.37
2023-05-05T18:54:32.691Z,16.32
2023-05-05T18:57:01.488Z,16.30
2023-05-05T18:59:29.893Z,16.34
2023-05-05T19:02:00.488Z,16.30
2023-05-05T19:04:31.661Z,16.18
2023-05-05T19:07:00.719Z,16.14
2023-05-05T19:09:29.300Z,16.11
2023-05-05T19:11:57.675Z,16.15
2023-05-05T19:14:26.122Z,16.20
2023-05-05T19:16:55.750Z,16.09
2023-05-05T19:19:26.050Z,16.02
2023-05-05T19:21:54.802Z,15.95
2023-05-05T19:24:23.181Z,15.76
2023-05-05T19:26:51.732Z,15.68
2023-05-05T19:29:20.094Z,15.67
2023-05-05T19:31:48.785Z,15.70
2023-05-05T19:34:17.120Z,15.72
2023-05-05T19:36:46.787Z,15.65
2023-05-05T19:39:15.875Z,15.61
2023-05-05T19:41:44.321Z,15.51
2023-05-05T19:44:12.629Z,15.45
2023-05-05T19:46:41.318Z,15.44
2023-05-05T19:49:09.736Z,15.36
2023-05-05T19:51:38.396Z,15.37
2023-05-05T19:54:08.295Z,15.23
2023-05-05T19:56:36.560Z,15.15
2023-05-05T19:59:06.359Z,15.13
2023-05-05T20:01:36.100Z,15.15
2023-05-05T20:04:04.867Z,15.17
2023-05-05T20:06:33.727Z,15.05
2023-05-05T20:09:02.185Z,15.09
2023-05-05T20:11:32.361Z,15.06
2023-05-05T20:14:01.012Z,14.99
2023-05-05T20:16:29.523Z,14.97
2023-05-05T20:18:58.053Z,14.93
2023-05-05T20:21:26.717Z,14.88
2023-05-05T20:23:55.454Z,14.92
2023-05-05T20:26:24.478Z,14.87
2023-05-05T20:28:54.279Z,14.76
2023-05-05T20:31:22.899Z,14.76
2023-05-05T20:33:51.287Z,14.64
2023-05-05T20:36:19.861Z,14.47
2023-05-05T20:38:48.238Z,14.45
2023-05-05T20:41:16.587Z,14.44
2023-05-05T20:43:45.028Z,14.39
2023-05-05T20:46:14.810Z,14.44
2023-05-05T20:48:43.388Z,14.43
2023-05-05T20:51:11.703Z,14.41
2023-05-05T20:53:40.035Z,14.31
2023-05-05T20:56:09.217Z,14.35
2023-05-05T20:58:37.806Z,14.34
2023-05-05T21:01:06.276Z,14.38
2023-05-05T21:03:37.249Z,14.30
2023-05-05T21:06:06.078Z,14.19
2023-05-05T21:08:34.441Z,14.20
2023-05-05T21:11:02.846Z,14.15
2023-05-05T21:13:32.099Z,14.14
2023-05-05T21:16:00.403Z,14.09
2023-05-05T21:18:28.771Z,14.08
2023-05-05T21:20:58.833Z,13.99
2023-05-05T21:23:27.134Z,14.00
2023-05-05T21:25:55.474Z,14.08
2023-05-05T21:28:23.978Z,13.97
2023-05-05T21:33:23.758Z,13.89
2023-05-05T21:35:52.066Z,13.82
2023-05-05T21:38:21.738Z,13.80
2023-05-05T21:40:50.346Z,13.79
2023-05-05T21:43:18.714Z,13.76
2023-05-05T21:45:47.013Z,13.83
2023-05-05T21:48:15.343Z,13.82
2023-05-05T21:50:43.743Z,13.81
2023-05-05T21:53:12.130Z,13.71
2023-05-05T21:55:41.815Z,13.83
2023-05-05T21:58:10.444Z,13.82
2023-05-05T22:00:38.862Z,13.76
2023-05-05T22:03:07.375Z,13.77
2023-05-05T22:05:35.881Z,13.69
2023-05-05T22:08:04.488Z,13.70
2023-05-05T22:10:32.835Z,13.68
2023-05-05T22:13:02.661Z,13.56
2023-05-05T22:15:38.899Z,13.39
2023-05-05T22:18:14.055Z,13.35
2023-05-05T22:20:44.132Z,13.29
2023-05-05T22:23:14.008Z,13.30
2023-05-05T22:25:42.425Z,13.26
2023-05-05T22:28:12.324Z,13.24
2023-05-05T22:30:40.738Z,13.13
2023-05-05T22:33:09.463Z,13.13
2023-05-05T22:35:38.223Z,13.23
2023-05-05T22:38:07.061Z,13.18
2023-05-05T22:40:35.491Z,13.12
2023-05-05T22:43:03.789Z,13.12
2023-05-05T22:45:34.146Z,13.07
2023-05-05T22:48:02.852Z,12.97
2023-05-05T22:50:31.242Z,12.90
2023-05-05T22:52:59.634Z,12.87
2023-05-05T22:55:28.049Z,12.79
2023-05-05T22:57:56.408Z,12.72
2023-05-05T23:00:25.119Z,12.71
2023-05-05T23:02:55.038Z,12.62
2023-05-05T23:05:23.367Z,12.58
2023-05-05T23:07:51.729Z,12.50
2023-05-05T23:10:20.055Z,12.50
2023-05-05T23:12:48.411Z,12.49
2023-05-05T23:15:17.154Z,12.37
2023-05-05T23:17:45.515Z,12.31
2023-05-05T23:20:15.192Z,12.23
2023-05-05T23:22:43.526Z,12.16
2023-05-05T23:25:12.405Z,12.10
2023-05-05T23:27:41.380Z,12.08
2023-05-05T23:30:10.434Z,12.09
2023-05-05T23:32:38.895Z,12.06
2023-05-05T23:35:08.388Z,11.98
2023-05-05T23:37:38.240Z,11.93
2023-05-05T23:40:07.853Z,11.81
2023-05-05T23:42:36.150Z,11.70
2023-05-05T23:45:04.827Z,11.57
2023-05-05T23:47:33.244Z,11.45
2023-05-05T23:50:01.745Z,11.25
2023-05-05T23:52:30.089Z,11.07
2023-05-05T23:54:59.760Z,11.01
2023-05-05T23:57:28.021Z,10.98
2023-05-05T23:59:56.380Z,10.94
